aviador You're here:

LFRS Decoded Metar

NANTES in FRANCE
Report Time2018-01-21 22:30:00
UTC Time2018-01-21 22:36:37
Flight Rules lifr LIFR
Wind260° at 14 kt
W.Decomp.*RWY 21: 8.6 kt HW 11.0 kt RCW
W.Rank260° ranks 1
Current wind is above 260° avg. (8.1)
Visibility4300 m
Phenomena:Mist
Clouds:Overcast 004 Hf
Expected CloudBase > 400 ft AGL from Temp-Dew spread
Ceiling400 ft
Temp12°C (ISA -3)
Dew Point11°C (94% RH)
AAT7.3°C
QNH1019 hPa
Density Alt-276 ft
Elevation89 ft
Report Wrong Elevation
Raw Report
METAR LFRS 212230Z AUTO 26014KT 4300 -RADZ BR OVC004 12/11 Q1019
TEMPO 28017G27KT=

Extra information for LFRS:More info

Metar Taf Metar & Taf Last 4 Metars F.Rules Stats Wind Profile Meteogram Temp Stats Airport Information Weather charts Add Link Nearby VenuesMetar ALERT Operation Metar Decoded Social comments